CheckWX is a tool to help pilots better visualize weather data.  It is not intended as a substitute for an official pre-flight weather briefing.

23:06:58 UTC

KLBE TAF
Arnold Palmer Regional Airport
Latrobe, Pennsylvania, USA
KLBE 191726Z 1918/2018 VRB04KT P6SM BKN250 FM200800 VRB04KT P6SM BKN100

Oct-19@
18:00 UTC

Oct-19 @ 18:00 UTC

Oct-20@
08:00 UTC

Oct-20 @ 08:00 UTC

KLBE 191726Z 1918/2018 VRB04KT P6SM BKN250
Wind
  • Variable at 4 KTS
Cloud Levels
  • Broken at 25,000' AGL

Oct-20@
08:00 UTC

Oct-20 @ 08:00 UTC

Oct-20@
18:00 UTC

Oct-20 @ 18:00 UTC

FM200800 VRB04KT P6SM BKN100

From

From Standard forecast or significant change

Wind
  • Variable at 4 KTS
Cloud Levels
  • Broken at 10,000' AGL